Saturday, November 18, 2017, 1:15 AM EST
Back to Local

KELM, Elmira County Airport

Location: Horseheads, NY, United States Lat: 42.167
Local Time: 1:15 AM EST ( 6:15 GMT) Lon: -76.9
Time Zone: US/Eastern Elev: 954 ft

Show me the last for .
Show Coded

Time T Td Feel RH Dir Speed Gust Alt SLP Vis Weather Sky Remarks
2017-11-18 00:53 29 26 - 88 - Calm - 29.94 29.96 10 CLR 6-hr Min Temp (1am): 26.1°F
6-hr Max Temp (1am): 33.1°F
2017-11-17 23:53 28 24 - 84 - Calm - 29.98 30.01 10 CLR 24-hr Min Temp (12am): 26.1°F
24-hr Max Temp (12am): 41.0°F
2017-11-17 22:53 27 23 23 84 360° 3 - 30.00 30.03 10 FEW120 None
2017-11-17 21:53 30 25 - 81 - Calm - 30.03 30.06 10 SCT110 None
2017-11-17 20:53 31 26 - 81 - Calm - 30.05 30.08 10 CLR None
2017-11-17 19:53 33 25 - 71 - Calm - 30.06 30.09 10 SCT110 None
2017-11-17 18:53 32 25 27 74 90° 5 - 30.09 30.12 10 OVC120 6-hr Min Temp (7pm): 28.9°F
6-hr Max Temp (7pm): 41.0°F
2017-11-17 17:53 30 22 - 71 - Calm - 30.12 30.15 10 CLR None
2017-11-17 16:53 33 23 29 66 100° 5 - 30.12 30.14 10 CLR None
2017-11-17 15:53 35 22 31 58 20° 5 - 30.12 30.14 10 CLR None
2017-11-17 14:53 39 21 35 48 290° 6 - 30.14 30.16 10 CLR None
2017-11-17 13:53 41 19 34 40 300° 12 - 30.15 30.17 10 CLR None
2017-11-17 12:53 40 21 34 46 240° 8 - 30.15 30.17 10 CLR 6-hr Min Temp (1pm): 32.0°F
6-hr Max Temp (1pm): 39.9°F
2017-11-17 11:53 38 20 30 47 300° 12 - 30.17 30.19 10 CLR None
2017-11-17 10:53 36 22 28 56 290° 10 - 30.19 30.21 10 CLR None
2017-11-17 09:53 35 22 27 58 350° 10 - 30.20 30.22 10 CLR None
2017-11-17 09:21 34 23 26 63 320° 10 - 30.19 - 10 SCT028 None
2017-11-17 09:11 34 23 27 63 290° 9 - 30.19 - 10 BKN028 None
2017-11-17 08:53 34 23 27 63 330° 8 - 30.20 30.22 10 FEW028 None
2017-11-17 08:08 33 22 25 63 340° 10 - 30.19 - 10 SCT026 None
2017-11-17 07:53 33 23 25 66 320° 10 - 30.18 30.20 10 BKN027 None
2017-11-17 06:53 33 24 28 69 290° 6 - 30.17 30.19 10 OVC024 24-hr Precip Total (7am): 0.06"
6-hr Min Temp (7am): 33.1°F
6-hr Max Temp (7am): 37.0°F
2017-11-17 05:53 34 26 27 72 350° 9 - 30.14 30.16 10 OVC022 None
2017-11-17 04:53 34 26 22 72 330° 10 21 30.12 30.15 10 OVC024 None
2017-11-17 03:53 35 27 24 72 290° 13 20 30.10 30.12 10 OVC022 None
2017-11-17 02:53 35 27 24 72 300° 13 20 30.09 30.11 10 OVC024 None
2017-11-17 01:53 36 27 24 69 290° 12 23 30.06 30.08 10 OVC026 Peak wind: 31 mph (27 kts) from 310° at 16 min

Support USWX by starting your Amazon purchase here.